Current Weather

Langkawi Intl

Langkawi Intl, Malaysia (WMKL)

Report from: Wednesday, April 24, 2024 5:00 PM UTC
Current time: Wednesday, April 24, 2024 6:09 PM UTC

Nearby weather – Weather history – Daily summaries
Weather forecast

Temperature29.0°C (84.2°F)
Heat index36.8°C (98.2°F)
Dew point27.0°C (80.6°F)
Winds 1 kts (0.5 m/s, 1.2 mph) Vrb
Winds variableWinds variable
Visibility6.2 mi. (10 km)
Clouds Few clouds 2,600 ft. (792 m)
Altimeter29.74 in.Hg (1007 mB)
Relative humidity89 %
Density altitude2,292 ft. (699 m)
Flight conditions Visual Meteorological Conditions
Raw dataWMKL 241700Z VRB01KT 9999 FEW026 29/27 Q1007
An error has occurred. This application may no longer respond until reloaded. Reload 🗙